Salt Lake City (SLC/KSLC)

Information

Location
Salt Lake City, UT
Local Time
18:13 / 6:13 pm
GMT Time
00:13 / 12:13 am
Gates
Unassigned
No FAA reported delays
METAR KSLC 222354Z COR 03012KT 10SM FEW027 SCT080CB SCT110 OVC240 13/06 A2977 RMK AO2 RAE08 SLP053 VIRGA DSNT SW-W CB DSNT DSNT ALQDS P0001 60008 T01330061 10167 20128 58015
TAF KSLC 222340Z 2300/2406 36014KT P6SM VCSH SCT060 BKN090 FM230300 33008KT 6SM -RA SCT025 OVC040 FM232000 33011G17KT P6SM VCSH SCT030 BKN060 FM240200 33007KT P6SM SCT060
  • No charts available